• Join FlightAware (Why Join?)
  • Login
  • US Flag 
04:48PM EDT


 

Airport Tracker/Info


-or-


 

Live Flight TrackerFlight Track Log ✈ GJS6221 ✈ 05-Aug-2013 ✈ CYUL - KLGA

Flight Track Log - Related Links

Times and Time Zones

All times are in EDT time to prevent confusion due to time zone crossing. See the GJS6221 flight status page for this flight to view local times or setup timezone preferences in your user account.

Time Position Orientation Groundspeed Altitude Reporting Facility
EDT Latitude Longitude Course Direction KTS MPH feet Rate Location/Type
07:22AM 45.4333 -73.7500 189° South 140 161 1,000  Level Montreal Center
07:23AM 45.4000 -73.7667 199° South 200 230 2,800 2,040 Climbing Montreal Center
07:24AM 45.3333 -73.8000 199° South 270 311 5,100 2,640 Climbing Montreal Center
07:25AM 45.2500 -73.8000 180° South 290 334 8,100 2,580 Climbing Montreal Center
07:26AM 45.1667 -73.8000 180° South 310 357 10,300 1,980 Climbing Montreal Center
07:27AM 44.8322 -74.1067 189° South  Level FlightAware Approximate
07:27AM 45.0667 -73.8167 187° South 360 414 12,100  Level Montreal Center
07:28AM 44.9667 -73.8167 180° South 390 449 14,200 2,220 Climbing Montreal Center
07:29AM 44.8500 -73.8000 174° South 400 460 16,600 2,100 Climbing Montreal Center
07:30AM 44.7500 -73.8000 180° South 400 460 18,500 2,040 Climbing Montreal Center
07:31AM 44.6333 -73.8000 180° South 400 460 20,700 1,980 Climbing Montreal Center
07:32AM 44.5167 -73.8167 186° South 410 472 22,500 1,560 Climbing Montreal Center
07:33AM 44.4000 -73.8167 180° South 420 483 23,900 1,440 Climbing Montreal Center
07:34AM 44.2833 -73.8000 174° South 440 506 25,400 1,320 Climbing Montreal Center
07:35AM 44.1667 -73.8000 180° South 440 506 26,600 1,140 Climbing Montreal Center
07:36AM 44.0333 -73.8000 180° South 450 518 27,700 900 Climbing Montreal Center
07:37AM 43.9167 -73.8167 186° South 460 529 28,500 780 Climbing Montreal Center
07:38AM 43.7667 -73.8000 175° South 470 541 29,300 780 Climbing Montreal Center
07:39AM 43.6500 -73.8000 180° South 480 552 30,100 300 Climbing Montreal Center
07:40AM 43.5167 -73.8000 180° South 490 564 30,000 -1,200 Descending Montreal Center
07:41AM 43.3322 -73.8103 182° South 499 574 27,400 -2,280 Descending Boston Center
07:42AM 43.2028 -73.8072 179° South 492 566 24,800 -2,040 Descending Boston Center
07:43AM 43.0778 -73.8072 180° South 474 545 23,500 -1,500 Descending Boston Center
07:44AM 42.9528 -73.8103 181° South 460 529 21,900 -1,560 Descending Boston Center
07:45AM 42.8339 -73.8103 180° South 448 516 20,400 -1,500 Descending Boston Center
07:46AM 42.7194 -73.7994 176° South 430 495 18,900 -1,260 Descending Boston Center
07:47AM 42.6258 -73.7803 171° South 418 481 18,000 -480 Descending Boston Center
07:48AM 42.4867 -73.7492 171° South 427 491 18,000  Level Boston Center
07:49AM 42.3744 -73.7300 173° South 421 484 18,000  Level Boston Center
07:50AM 42.2594 -73.7472 186° South 415 478 18,000  Level Boston Center
07:51AM 42.1447 -73.7617 185° South 415 478 18,000  Level Boston Center
07:52AM 42.0300 -73.7733 184° South 415 478 18,000  Level Boston Center
07:53AM 41.9192 -73.7906 187° South 410 472 18,000 -480 Level Boston Center
07:54AM 41.8275 -73.8025 186° South 374 430 17,100 -1,260 Descending Boston Center
07:55AM 41.7169 -73.8083 182° South 336 387 15,300 -1,560 Descending Boston Center
07:56AM 41.6356 -73.8067 179° South 329 379 13,800 -1,680 Descending Boston Center
07:57AM 41.5667 -73.8000 176° South 320 368 12,800 -1,740 Descending New York TRACON
07:58AM 41.4833 -73.8000 180° South 314 361 11,200 -1,500 Descending New York TRACON
07:59AM 41.4000 -73.8000 180° South 307 353 9,800 -1,440 Descending New York TRACON
08:00AM 41.3167 -73.7667 163° South 312 359 8,400 -900 Descending New York TRACON
08:01AM 41.2500 -73.7167 151° Southeast 307 353 8,000 -900 Descending New York TRACON
08:02AM 41.1833 -73.6667 151° Southeast 307 353 6,700 -1,140 Descending New York TRACON
08:03AM 41.1167 -73.6333 159° South 295 339 5,900 -1,200 Descending New York TRACON
08:04AM 41.0333 -73.6000 163° South 282 325 4,300 -960 Descending New York TRACON
08:05AM 40.9667 -73.6000 180° South 275 316 4,000 -180 Descending New York TRACON
08:06AM 40.8833 -73.6333 197° South 276 318 4,000  Level New York TRACON
08:07AM 40.8333 -73.6833 217° Southwest 267 307 4,000  Level New York TRACON
08:08AM 40.7833 -73.7500 225° Southwest 266 306 4,000  Level New York TRACON
08:09AM 40.7833 -73.8500 270° West 252 290 4,000  Level New York TRACON
08:10AM 40.7500 -73.9500 246° West 250 288 4,000  Level New York TRACON
08:11AM 40.7333 -74.0000 246° West 193 222 4,000 -540 Level New York TRACON
08:12AM 40.7000 -73.9667 143° Southeast 205 236 3,000 -960 Descending New York TRACON
08:13AM 40.7167 -73.9167 66° East 171 197 2,000 -1,080 Descending New York TRACON
08:14AM 40.7333 -73.8667 66° East 143 165 900 -840 Descending New York TRACON
08:15AM 40.7667 -73.8333 37° Northeast 136 157 400 -540 Descending New York TRACON